createdAt,value
2022-12-25T00:01:17.512Z,3.38
2022-12-25T00:03:45.090Z,3.33
2022-12-25T00:06:12.403Z,3.10
2022-12-25T00:08:40.415Z,3.60
2022-12-25T00:11:14.456Z,3.47
2022-12-25T00:13:41.723Z,2.88
2022-12-25T00:16:20.365Z,3.42
2022-12-25T00:18:51.391Z,3.50
2022-12-25T00:21:18.992Z,3.25
2022-12-25T00:23:45.781Z,3.38
2022-12-25T00:26:15.827Z,4.22
2022-12-25T00:28:42.795Z,4.00
2022-12-25T00:31:12.639Z,3.20
2022-12-25T00:33:41.694Z,3.45
2022-12-25T00:36:10.177Z,3.83
2022-12-25T00:38:39.197Z,3.38
2022-12-25T00:41:14.470Z,3.15
2022-12-25T00:43:42.311Z,3.05
2022-12-25T00:46:10.412Z,3.28
2022-12-25T00:48:37.935Z,3.10
2022-12-25T00:51:07.798Z,3.03
2022-12-25T00:53:34.799Z,3.60
2022-12-25T00:56:05.263Z,2.55
2022-12-25T00:58:33.723Z,2.72
2022-12-25T01:01:01.140Z,2.95
2022-12-25T01:03:28.418Z,2.95
2022-12-25T01:06:00.985Z,2.85
2022-12-25T01:08:29.127Z,2.78
2022-12-25T01:10:58.234Z,2.42
2022-12-25T01:13:25.934Z,3.10
2022-12-25T01:15:52.832Z,3.30
2022-12-25T01:18:20.612Z,2.70
2022-12-25T01:20:48.191Z,2.72
2022-12-25T01:23:15.413Z,3.03
2022-12-25T01:25:42.694Z,2.95
2022-12-25T01:28:09.483Z,2.95
2022-12-25T01:30:36.280Z,2.53
2022-12-25T01:33:03.149Z,3.03
2022-12-25T01:35:29.925Z,4.22
2022-12-25T01:37:56.784Z,3.47
2022-12-25T01:40:23.805Z,3.40
2022-12-25T01:42:50.660Z,3.80
2022-12-25T01:45:35.827Z,3.25
2022-12-25T01:48:09.867Z,3.78
2022-12-25T01:50:39.005Z,4.03
2022-12-25T01:53:09.031Z,3.80
2022-12-25T01:55:37.074Z,3.45
2022-12-25T01:58:04.146Z,3.67
2022-12-25T02:00:31.024Z,3.67
2022-12-25T02:02:59.342Z,3.80
2022-12-25T02:05:30.633Z,3.38
2022-12-25T02:08:00.929Z,3.92
2022-12-25T02:10:27.665Z,3.95
2022-12-25T02:12:54.532Z,3.75
2022-12-25T02:15:52.858Z,3.97
2022-12-25T02:18:26.808Z,3.95
2022-12-25T02:21:11.658Z,3.75
2022-12-25T02:24:03.542Z,3.95
2022-12-25T02:26:51.748Z,3.70
2022-12-25T02:29:31.144Z,3.70
2022-12-25T02:32:02.181Z,4.10
2022-12-25T02:34:59.524Z,3.60
2022-12-25T02:37:32.766Z,3.95
2022-12-25T02:40:06.172Z,4.07
2022-12-25T02:42:54.412Z,3.58
2022-12-25T02:45:52.645Z,3.60
2022-12-25T02:48:40.660Z,3.85
2022-12-25T02:51:31.296Z,3.55
2022-12-25T02:54:21.082Z,3.67
2022-12-25T02:57:08.121Z,2.63
2022-12-25T02:59:57.017Z,2.97
2022-12-25T03:02:43.990Z,3.58
2022-12-25T03:05:35.621Z,3.47
2022-12-25T03:08:07.254Z,3.85
2022-12-25T03:10:56.565Z,3.42
2022-12-25T03:13:29.487Z,3.20
2022-12-25T03:16:15.272Z,3.50
2022-12-25T03:18:42.804Z,4.40
2022-12-25T03:21:45.290Z,3.42
2022-12-25T03:24:30.481Z,3.45
2022-12-25T03:26:58.355Z,3.95
2022-12-25T03:30:06.599Z,3.85
2022-12-25T03:32:33.369Z,3.67
2022-12-25T03:35:24.275Z,3.33
2022-12-25T03:38:10.639Z,3.95
2022-12-25T03:41:31.620Z,3.85
2022-12-25T03:44:22.448Z,4.20
2022-12-25T03:47:14.012Z,3.53
2022-12-25T03:50:19.510Z,4.38
2022-12-25T03:53:06.527Z,3.40
2022-12-25T03:55:53.227Z,3.40
2022-12-25T03:58:42.042Z,4.13
2022-12-25T04:01:28.473Z,3.90
2022-12-25T04:04:14.012Z,3.78
2022-12-25T04:07:00.132Z,4.35
2022-12-25T04:09:45.553Z,3.40
2022-12-25T04:12:30.792Z,3.13
2022-12-25T04:15:16.328Z,3.53
2022-12-25T04:18:03.603Z,3.67
2022-12-25T04:20:48.954Z,3.53
2022-12-25T04:23:34.428Z,4.00
2022-12-25T04:26:19.604Z,3.40
2022-12-25T04:29:04.955Z,3.60
2022-12-25T04:31:50.138Z,3.42
2022-12-25T04:34:35.447Z,3.58
2022-12-25T04:37:02.249Z,3.47
2022-12-25T04:39:29.148Z,4.00
2022-12-25T04:41:55.942Z,4.20
2022-12-25T04:44:22.757Z,4.25
2022-12-25T04:46:49.537Z,4.45
2022-12-25T04:49:16.472Z,4.35
2022-12-25T04:51:43.311Z,4.13
2022-12-25T04:54:10.147Z,4.80
2022-12-25T04:56:43.456Z,4.18
2022-12-25T04:59:12.569Z,4.43
2022-12-25T05:01:39.461Z,4.10
2022-12-25T05:04:06.514Z,4.15
2022-12-25T05:06:33.311Z,4.18
2022-12-25T05:09:00.328Z,4.43
2022-12-25T05:11:27.709Z,5.55
2022-12-25T05:13:54.505Z,3.75
2022-12-25T05:16:21.593Z,4.95
2022-12-25T05:18:52.565Z,3.67
2022-12-25T05:21:20.130Z,4.28
2022-12-25T05:23:51.118Z,3.58
2022-12-25T05:26:23.986Z,4.00
2022-12-25T05:28:51.572Z,3.47
2022-12-25T05:31:19.311Z,3.05
2022-12-25T05:33:48.893Z,4.18
2022-12-25T05:36:15.651Z,3.63
2022-12-25T05:38:42.405Z,4.13
2022-12-25T05:41:09.917Z,4.70
2022-12-25T05:43:36.929Z,3.88
2022-12-25T05:46:10.800Z,4.30
2022-12-25T05:48:38.623Z,5.28
2022-12-25T05:51:08.277Z,4.88
2022-12-25T05:53:35.730Z,5.10
2022-12-25T05:56:04.960Z,5.13
2022-12-25T05:58:32.934Z,5.07
2022-12-25T06:00:59.773Z,5.35
2022-12-25T06:03:26.875Z,5.65
2022-12-25T06:05:54.299Z,4.95
2022-12-25T06:08:21.359Z,5.65
2022-12-25T06:10:48.371Z,5.35
2022-12-25T06:13:15.256Z,5.03
2022-12-25T06:15:42.826Z,4.45
2022-12-25T06:18:09.677Z,4.70
2022-12-25T06:20:36.850Z,4.57
2022-12-25T06:23:03.651Z,4.55
2022-12-25T06:25:31.508Z,4.93
2022-12-25T06:27:58.288Z,4.90
2022-12-25T06:30:25.169Z,4.53
2022-12-25T06:32:52.071Z,4.90
2022-12-25T06:35:18.870Z,5.10
2022-12-25T06:37:46.389Z,4.38
2022-12-25T06:40:13.483Z,4.90
2022-12-25T06:42:40.334Z,4.30
2022-12-25T06:45:10.071Z,5.40
2022-12-25T06:47:38.124Z,4.68
2022-12-25T06:50:05.910Z,4.93
2022-12-25T06:52:33.526Z,5.45
2022-12-25T06:55:00.332Z,5.70
2022-12-25T06:57:27.098Z,5.07
2022-12-25T06:59:55.519Z,6.15
2022-12-25T07:02:24.265Z,6.35
2022-12-25T07:04:52.171Z,6.68
2022-12-25T07:07:19.405Z,7.38
2022-12-25T07:09:46.197Z,7.82
2022-12-25T07:12:21.794Z,7.93
2022-12-25T07:14:50.190Z,7.63
2022-12-25T07:17:17.915Z,6.80
2022-12-25T07:19:48.251Z,6.85
2022-12-25T07:22:16.127Z,7.82
2022-12-25T07:24:43.059Z,7.63
2022-12-25T07:27:10.270Z,8.40
2022-12-25T07:29:37.053Z,7.72
2022-12-25T07:32:04.001Z,7.70
2022-12-25T07:34:30.851Z,8.57
2022-12-25T07:36:57.667Z,9.63
2022-12-25T07:39:24.523Z,10.88
2022-12-25T07:41:51.411Z,12.65
2022-12-25T07:44:18.594Z,11.18
2022-12-25T07:46:45.783Z,11.40
2022-12-25T07:49:12.994Z,11.18
2022-12-25T07:51:39.944Z,10.52
2022-12-25T07:54:06.809Z,10.25
2022-12-25T07:56:33.651Z,11.57
2022-12-25T07:59:00.424Z,9.27
2022-12-25T08:01:28.612Z,9.65
2022-12-25T08:04:01.192Z,9.38
2022-12-25T08:06:31.758Z,10.15
2022-12-25T08:09:03.489Z,8.73
2022-12-25T08:11:30.287Z,9.70
2022-12-25T08:13:57.405Z,7.97
2022-12-25T08:16:24.336Z,7.88
2022-12-25T08:18:51.167Z,8.63
2022-12-25T08:21:18.071Z,8.45
2022-12-25T08:23:46.756Z,7.45
2022-12-25T08:26:17.833Z,7.03
2022-12-25T08:28:44.691Z,7.57
2022-12-25T08:31:25.939Z,7.40
2022-12-25T08:33:55.702Z,6.30
2022-12-25T08:36:23.309Z,5.80
2022-12-25T08:38:50.333Z,5.57
2022-12-25T08:41:17.889Z,6.07
2022-12-25T08:43:44.966Z,6.80
2022-12-25T08:46:12.467Z,7.55
2022-12-25T08:48:42.786Z,6.50
2022-12-25T08:51:14.662Z,7.47
2022-12-25T08:53:43.025Z,7.22
2022-12-25T08:56:10.160Z,6.85
2022-12-25T08:58:37.248Z,7.20
2022-12-25T09:01:04.722Z,6.88
2022-12-25T09:03:34.902Z,7.53
2022-12-25T09:06:13.141Z,7.07
2022-12-25T09:08:46.228Z,7.68
2022-12-25T09:11:16.944Z,7.60
2022-12-25T09:13:43.866Z,7.32
2022-12-25T09:16:13.530Z,6.72
2022-12-25T09:18:40.895Z,6.63
2022-12-25T09:21:11.558Z,8.05
2022-12-25T09:23:39.298Z,7.75
2022-12-25T09:26:08.828Z,7.88
2022-12-25T09:28:35.705Z,7.50
2022-12-25T09:31:02.937Z,7.43
2022-12-25T09:33:30.201Z,7.32
2022-12-25T09:36:00.109Z,8.05
2022-12-25T09:38:28.910Z,7.85
2022-12-25T09:41:08.325Z,7.18
2022-12-25T09:43:45.788Z,8.18
2022-12-25T09:46:20.073Z,7.93
2022-12-25T09:49:10.923Z,7.78
2022-12-25T09:51:40.239Z,7.07
2022-12-25T09:54:36.704Z,8.23
2022-12-25T09:57:03.977Z,7.70
2022-12-25T09:59:30.867Z,7.47
2022-12-25T10:02:19.388Z,7.53
2022-12-25T10:05:11.047Z,7.38
2022-12-25T10:08:18.680Z,7.25
2022-12-25T10:11:09.885Z,8.02
2022-12-25T10:13:59.467Z,7.95
2022-12-25T10:16:32.070Z,7.85
2022-12-25T10:19:27.610Z,7.25
2022-12-25T10:22:00.855Z,7.78
2022-12-25T10:26:57.661Z,7.18
2022-12-25T10:29:24.399Z,8.25
2022-12-25T10:31:55.482Z,7.38
2022-12-25T10:34:23.563Z,7.90
2022-12-25T10:36:50.925Z,7.43
2022-12-25T10:39:24.299Z,7.45
2022-12-25T10:42:29.563Z,7.20
2022-12-25T10:44:57.029Z,8.95
2022-12-25T10:47:30.414Z,6.82
2022-12-25T10:52:27.344Z,6.68
2022-12-25T10:54:55.294Z,6.35
2022-12-25T10:57:24.818Z,7.15
2022-12-25T10:59:57.928Z,6.82
2022-12-25T11:02:28.841Z,6.68
2022-12-25T11:05:08.432Z,6.35
2022-12-25T11:07:46.833Z,7.28
2022-12-25T11:10:26.320Z,6.97
2022-12-25T11:12:54.038Z,5.75
2022-12-25T11:15:48.815Z,6.57
2022-12-25T11:18:23.202Z,7.55
2022-12-25T11:20:55.528Z,6.50
2022-12-25T11:23:25.263Z,6.47
2022-12-25T11:25:59.288Z,9.60
2022-12-25T11:28:28.517Z,6.68
2022-12-25T11:31:02.978Z,7.72
2022-12-25T11:33:40.193Z,5.85
2022-12-25T11:36:39.745Z,6.35
2022-12-25T11:39:18.388Z,6.63
2022-12-25T11:41:46.378Z,6.22
2022-12-25T11:44:42.739Z,6.45
2022-12-25T11:47:25.835Z,5.93
2022-12-25T11:50:02.149Z,6.50
2022-12-25T11:52:37.562Z,6.22
2022-12-25T11:55:43.766Z,6.22
2022-12-25T11:58:20.614Z,7.25
2022-12-25T12:00:50.124Z,6.90
2022-12-25T12:03:20.940Z,6.32
2022-12-25T12:05:58.305Z,6.70
2022-12-25T12:08:25.483Z,6.40
2022-12-25T12:11:16.131Z,6.85
2022-12-25T12:13:58.876Z,7.43
2022-12-25T12:16:25.889Z,7.50
2022-12-25T12:18:52.658Z,7.22
2022-12-25T12:21:24.645Z,6.90
2022-12-25T12:24:00.438Z,7.55
2022-12-25T12:26:30.309Z,8.38
2022-12-25T12:29:02.411Z,7.50
2022-12-25T12:31:44.986Z,7.43
2022-12-25T12:34:28.984Z,7.70
2022-12-25T12:37:29.601Z,7.85
2022-12-25T12:40:45.807Z,8.18
2022-12-25T12:43:30.394Z,9.70
2022-12-25T12:46:04.200Z,8.40
2022-12-25T12:48:39.238Z,7.80
2022-12-25T12:51:09.289Z,8.43
2022-12-25T12:53:36.835Z,8.98
2022-12-25T12:56:10.941Z,8.65
2022-12-25T12:58:48.633Z,8.73
2022-12-25T13:01:27.595Z,9.43
2022-12-25T13:04:23.007Z,10.07
2022-12-25T13:06:58.193Z,9.95
2022-12-25T13:09:35.418Z,9.05
2022-12-25T13:12:08.275Z,9.75
2022-12-25T13:14:40.214Z,9.20
2022-12-25T13:17:08.942Z,10.13
2022-12-25T13:19:37.180Z,9.63
2022-12-25T13:22:06.943Z,9.88
2022-12-25T13:24:36.391Z,10.73
2022-12-25T13:27:24.679Z,9.50
2022-12-25T13:29:52.102Z,11.15
2022-12-25T13:32:37.688Z,10.18
2022-12-25T13:35:04.625Z,9.90
2022-12-25T13:37:32.127Z,10.88
2022-12-25T13:40:01.916Z,10.57
2022-12-25T13:42:39.945Z,10.90
2022-12-25T13:45:23.819Z,11.38
2022-12-25T13:47:55.511Z,11.25
2022-12-25T13:50:32.703Z,11.07
2022-12-25T13:53:12.217Z,11.20
2022-12-25T13:55:39.843Z,12.43
2022-12-25T13:58:08.194Z,11.13
2022-12-25T14:00:48.702Z,11.38
2022-12-25T14:03:45.582Z,11.10
2022-12-25T14:06:28.741Z,12.20
2022-12-25T14:08:58.342Z,12.52
2022-12-25T14:11:28.222Z,10.85
2022-12-25T14:13:59.998Z,12.23
2022-12-25T14:16:27.827Z,10.82
2022-12-25T14:19:03.910Z,10.10
2022-12-25T14:21:38.662Z,12.48
2022-12-25T14:24:15.716Z,12.07
2022-12-25T14:26:43.044Z,12.20
2022-12-25T14:29:16.732Z,12.27
2022-12-25T14:31:46.242Z,12.70
2022-12-25T14:34:17.845Z,13.07
2022-12-25T14:36:44.992Z,13.52
2022-12-25T14:39:38.045Z,12.70
2022-12-25T14:42:24.607Z,12.60
2022-12-25T14:45:34.660Z,12.35
2022-12-25T14:48:18.520Z,13.10
2022-12-25T14:51:06.106Z,11.85
2022-12-25T14:53:40.960Z,12.10
2022-12-25T14:56:10.279Z,11.88
2022-12-25T14:58:43.410Z,12.32
2022-12-25T15:01:29.519Z,12.90
2022-12-25T15:04:14.473Z,11.68
2022-12-25T15:06:52.921Z,11.50
2022-12-25T15:09:20.136Z,11.45
2022-12-25T15:11:51.687Z,11.68
2022-12-25T15:14:18.545Z,11.65
2022-12-25T15:16:49.382Z,11.95
2022-12-25T15:19:37.407Z,12.05
2022-12-25T15:22:04.834Z,11.35
2022-12-25T15:24:31.661Z,12.50
2022-12-25T15:27:00.810Z,12.02
2022-12-25T15:30:00.274Z,11.32
2022-12-25T15:32:23.983Z,11.50
2022-12-25T15:34:51.386Z,11.32
2022-12-25T15:37:19.013Z,11.75
2022-12-25T15:39:46.237Z,11.65
2022-12-25T15:42:15.652Z,11.13
2022-12-25T15:44:43.768Z,10.57
2022-12-25T15:47:15.579Z,10.90
2022-12-25T15:49:42.836Z,10.93
2022-12-25T15:52:15.840Z,11.48
2022-12-25T15:54:42.905Z,12.30
2022-12-25T15:57:21.106Z,11.95
2022-12-25T15:59:48.200Z,11.95
2022-12-25T16:02:20.625Z,12.75
2022-12-25T16:04:47.874Z,13.18
2022-12-25T16:07:17.263Z,12.60
2022-12-25T16:09:44.313Z,13.02
2022-12-25T16:12:11.573Z,13.60
2022-12-25T16:14:38.389Z,17.30
2022-12-25T16:17:05.589Z,14.23
2022-12-25T16:19:32.502Z,13.77
2022-12-25T16:21:59.267Z,14.07
2022-12-25T16:24:26.141Z,15.77
2022-12-25T16:26:52.938Z,15.77
2022-12-25T16:29:19.761Z,13.27
2022-12-25T16:31:46.605Z,14.90
2022-12-25T16:34:13.560Z,13.82
2022-12-25T16:36:40.407Z,14.40
2022-12-25T16:39:07.250Z,14.48
2022-12-25T16:41:34.160Z,14.75
2022-12-25T16:44:09.221Z,15.68
2022-12-25T16:46:37.468Z,15.57
2022-12-25T16:49:05.043Z,14.30
2022-12-25T16:51:31.853Z,14.52
2022-12-25T16:54:00.185Z,13.65
2022-12-25T16:56:28.350Z,14.60
2022-12-25T16:58:56.643Z,14.32
2022-12-25T17:01:24.166Z,13.48
2022-12-25T17:03:52.067Z,15.15
2022-12-25T17:06:24.731Z,13.55
2022-12-25T17:08:53.264Z,13.88
2022-12-25T17:11:27.299Z,13.55
2022-12-25T17:13:54.539Z,12.98
2022-12-25T17:16:27.201Z,15.75
2022-12-25T17:19:02.002Z,15.25
2022-12-25T17:21:30.404Z,14.20
2022-12-25T17:24:02.371Z,14.60
2022-12-25T17:26:30.740Z,13.95
2022-12-25T17:28:57.512Z,14.68
2022-12-25T17:31:24.329Z,16.00
2022-12-25T17:33:51.296Z,15.70
2022-12-25T17:36:19.925Z,15.68
2022-12-25T17:38:47.742Z,17.23
2022-12-25T17:41:16.236Z,15.13
2022-12-25T17:43:45.647Z,14.43
2022-12-25T17:46:18.750Z,14.18
2022-12-25T17:48:46.745Z,15.63
2022-12-25T17:51:18.888Z,14.77
2022-12-25T17:53:48.947Z,13.73
2022-12-25T17:56:16.667Z,13.98
2022-12-25T17:58:43.754Z,15.43
2022-12-25T18:01:16.031Z,14.25
2022-12-25T18:03:44.514Z,14.85
2022-12-25T18:06:14.779Z,14.02
2022-12-25T18:08:45.285Z,13.13
2022-12-25T18:11:17.831Z,13.70
2022-12-25T18:13:48.528Z,13.55
2022-12-25T18:16:17.325Z,14.15
2022-12-25T18:18:51.990Z,13.05
2022-12-25T18:21:20.741Z,14.27
2022-12-25T18:23:48.170Z,14.00
2022-12-25T18:26:15.189Z,14.95
2022-12-25T18:28:43.899Z,14.77
2022-12-25T18:31:15.710Z,14.10
2022-12-25T18:33:42.980Z,14.05
2022-12-25T18:36:10.932Z,14.30
2022-12-25T18:38:37.710Z,13.77
2022-12-25T18:41:09.116Z,13.48
2022-12-25T18:43:52.062Z,13.80
2022-12-25T18:46:24.679Z,13.75
2022-12-25T18:48:52.765Z,13.93
2022-12-25T18:51:19.685Z,14.85
2022-12-25T18:53:46.647Z,15.18
2022-12-25T18:56:17.469Z,14.05
2022-12-25T18:58:45.200Z,14.60
2022-12-25T19:01:20.416Z,15.38
2022-12-25T19:03:50.098Z,14.75
2022-12-25T19:06:26.819Z,13.73
2022-12-25T19:08:54.403Z,13.75
2022-12-25T19:11:22.100Z,14.80
2022-12-25T19:13:49.013Z,13.70
2022-12-25T19:16:16.991Z,13.63
2022-12-25T19:18:45.643Z,14.48
2022-12-25T19:21:13.363Z,13.13
2022-12-25T19:23:40.191Z,13.20
2022-12-25T19:26:09.065Z,13.95
2022-12-25T19:28:37.121Z,13.55
2022-12-25T19:31:07.358Z,14.15
2022-12-25T19:33:35.649Z,14.93
2022-12-25T19:36:04.203Z,14.90
2022-12-25T19:38:31.044Z,14.27
2022-12-25T19:41:01.379Z,15.23
2022-12-25T19:43:36.683Z,15.75
2022-12-25T19:46:04.020Z,14.57
2022-12-25T19:48:32.252Z,13.55
2022-12-25T19:50:59.569Z,12.80
2022-12-25T19:53:27.212Z,12.48
2022-12-25T19:55:54.665Z,13.20
2022-12-25T19:58:23.202Z,13.65
2022-12-25T20:01:06.055Z,13.43
2022-12-25T20:03:37.433Z,12.98
2022-12-25T20:06:09.008Z,12.48
2022-12-25T20:08:35.888Z,12.93
2022-12-25T20:11:03.872Z,12.70
2022-12-25T20:13:30.703Z,13.55
2022-12-25T20:16:01.641Z,13.00
2022-12-25T20:18:29.494Z,12.07
2022-12-25T20:21:27.543Z,13.85
2022-12-25T20:23:56.063Z,13.85
2022-12-25T20:26:27.438Z,15.02
2022-12-25T20:28:54.392Z,14.30
2022-12-25T20:31:27.548Z,13.95
2022-12-25T20:33:55.762Z,13.77
2022-12-25T20:36:22.598Z,14.10
2022-12-25T20:38:49.951Z,14.18
2022-12-25T20:41:28.778Z,14.75
2022-12-25T20:43:56.168Z,14.50
2022-12-25T20:46:23.590Z,14.10
2022-12-25T20:48:51.939Z,13.98
2022-12-25T20:51:21.940Z,14.75
2022-12-25T20:53:49.117Z,13.20
2022-12-25T20:56:17.849Z,14.73
2022-12-25T20:58:44.762Z,14.02
2022-12-25T21:01:17.191Z,13.73
2022-12-25T21:03:44.912Z,13.65
2022-12-25T21:06:12.338Z,14.13
2022-12-25T21:08:40.958Z,13.20
2022-12-25T21:11:08.590Z,13.55
2022-12-25T21:13:41.203Z,12.90
2022-12-25T21:16:10.938Z,13.65
2022-12-25T21:18:38.102Z,13.02
2022-12-25T21:21:06.584Z,13.60
2022-12-25T21:23:36.068Z,12.48
2022-12-25T21:26:11.906Z,13.20
2022-12-25T21:28:38.797Z,13.57
2022-12-25T21:31:06.677Z,13.32
2022-12-25T21:33:52.499Z,12.88
2022-12-25T21:36:28.335Z,12.73
2022-12-25T21:39:04.676Z,12.52
2022-12-25T21:41:32.730Z,12.07
2022-12-25T21:44:00.507Z,11.73
2022-12-25T21:46:28.405Z,12.15
2022-12-25T21:48:55.890Z,11.57
2022-12-25T21:51:47.468Z,12.13
2022-12-25T21:54:15.228Z,11.25
2022-12-25T21:56:45.448Z,11.40
2022-12-25T21:59:16.062Z,11.90
2022-12-25T22:01:43.712Z,10.68
2022-12-25T22:04:11.542Z,10.82
2022-12-25T22:06:57.053Z,11.13
2022-12-25T22:09:24.561Z,10.57
2022-12-25T22:12:09.984Z,9.60
2022-12-25T22:14:56.319Z,10.93
2022-12-25T22:17:45.055Z,11.52
2022-12-25T22:20:17.981Z,11.27
2022-12-25T22:22:45.287Z,10.98
2022-12-25T22:25:13.550Z,10.07
2022-12-25T22:27:42.048Z,9.35
2022-12-25T22:30:12.159Z,10.02
2022-12-25T22:32:39.502Z,9.55
2022-12-25T22:35:06.779Z,9.93
2022-12-25T22:37:33.541Z,10.13
2022-12-25T22:40:02.292Z,10.60
2022-12-25T22:42:30.774Z,10.00
2022-12-25T22:44:58.740Z,10.30
2022-12-25T22:47:25.567Z,10.15
2022-12-25T22:49:52.435Z,10.35
2022-12-25T22:52:19.254Z,8.90
2022-12-25T22:54:46.022Z,9.88
2022-12-25T22:57:12.791Z,10.15
2022-12-25T22:59:40.044Z,10.38
2022-12-25T23:02:07.199Z,9.48
2022-12-25T23:04:34.152Z,9.38
2022-12-25T23:07:02.074Z,9.38
2022-12-25T23:09:29.362Z,9.23
2022-12-25T23:11:57.707Z,9.63
2022-12-25T23:14:40.911Z,9.45
2022-12-25T23:17:30.878Z,9.93
2022-12-25T23:20:18.345Z,9.10
2022-12-25T23:23:05.250Z,9.00
2022-12-25T23:25:52.570Z,9.07
2022-12-25T23:28:39.638Z,10.02
2022-12-25T23:31:07.174Z,9.48
2022-12-25T23:33:34.143Z,9.68
2022-12-25T23:36:00.953Z,11.13
2022-12-25T23:38:28.002Z,9.63
2022-12-25T23:40:54.805Z,9.57
2022-12-25T23:43:21.643Z,8.73
2022-12-25T23:45:48.365Z,10.43
2022-12-25T23:48:15.296Z,9.85
2022-12-25T23:50:42.146Z,10.00
2022-12-25T23:53:09.600Z,9.70
2022-12-25T23:55:36.547Z,8.90
2022-12-25T23:58:03.402Z,9.93
